createdAt,value
2023-02-09T00:00:38.052Z,64.05
2023-02-09T00:03:06.282Z,65.21
2023-02-09T00:05:34.548Z,64.31
2023-02-09T00:08:02.832Z,65.61
2023-02-09T00:10:31.069Z,65.24
2023-02-09T00:13:16.498Z,65.11
2023-02-09T00:15:51.693Z,65.33
2023-02-09T00:18:20.530Z,64.77
2023-02-09T00:20:57.268Z,65.13
2023-02-09T00:23:26.205Z,65.42
2023-02-09T00:25:55.283Z,65.34
2023-02-09T00:28:26.463Z,66.32
2023-02-09T00:31:07.580Z,65.79
2023-02-09T00:33:36.268Z,66.14
2023-02-09T00:36:06.921Z,65.85
2023-02-09T00:38:36.463Z,65.66
2023-02-09T00:41:05.119Z,65.79
2023-02-09T00:43:33.678Z,65.36
2023-02-09T00:46:03.890Z,66.06
2023-02-09T00:48:32.824Z,66.35
2023-02-09T00:51:01.660Z,65.20
2023-02-09T00:53:30.481Z,65.21
2023-02-09T00:56:00.026Z,66.32
2023-02-09T00:58:28.363Z,66.30
2023-02-09T01:00:56.660Z,65.32
2023-02-09T01:03:26.806Z,66.15
2023-02-09T01:05:55.138Z,66.23
2023-02-09T01:08:23.401Z,65.80
2023-02-09T01:10:51.873Z,65.47
2023-02-09T01:13:20.118Z,66.54
2023-02-09T01:15:48.471Z,66.09
2023-02-09T01:18:16.874Z,65.67
2023-02-09T01:20:46.832Z,65.70
2023-02-09T01:23:15.863Z,66.67
2023-02-09T01:25:44.621Z,66.02
2023-02-09T01:28:12.946Z,66.41
2023-02-09T01:30:41.311Z,67.41
2023-02-09T01:33:09.669Z,67.52
2023-02-09T01:35:37.893Z,67.03
2023-02-09T01:38:07.702Z,66.44
2023-02-09T01:40:36.140Z,66.41
2023-02-09T01:43:04.624Z,66.86
2023-02-09T01:45:38.075Z,66.63
2023-02-09T01:48:06.568Z,66.38
2023-02-09T01:50:38.900Z,65.99
2023-02-09T01:53:10.069Z,67.00
2023-02-09T01:55:45.748Z,66.06
2023-02-09T01:58:17.353Z,66.12
2023-02-09T02:00:47.173Z,67.22
2023-02-09T02:03:18.657Z,67.52
2023-02-09T02:05:49.896Z,67.48
2023-02-09T02:08:26.681Z,68.20
2023-02-09T02:10:56.690Z,67.67
2023-02-09T02:13:25.119Z,67.91
2023-02-09T02:16:04.798Z,68.65
2023-02-09T02:18:54.069Z,68.10
2023-02-09T02:21:50.423Z,69.30
2023-02-09T02:24:55.422Z,69.20
2023-02-09T02:27:32.972Z,69.79
2023-02-09T02:30:19.826Z,69.41
2023-02-09T02:32:56.636Z,70.26
2023-02-09T02:35:32.558Z,69.74
2023-02-09T02:38:09.039Z,70.45
2023-02-09T02:40:45.394Z,70.05
2023-02-09T02:43:24.482Z,71.00
2023-02-09T02:45:59.480Z,70.53
2023-02-09T02:48:37.045Z,69.99
2023-02-09T02:51:08.908Z,70.69
2023-02-09T02:53:41.219Z,70.63
2023-02-09T02:56:14.036Z,71.03
2023-02-09T02:58:45.472Z,71.43
2023-02-09T03:01:17.616Z,70.63
2023-02-09T03:03:48.654Z,70.51
2023-02-09T03:06:18.708Z,71.60
2023-02-09T03:08:49.046Z,70.80
2023-02-09T03:11:19.588Z,70.69
2023-02-09T03:14:01.295Z,71.35
2023-02-09T03:16:38.571Z,70.70
2023-02-09T03:19:17.946Z,70.71
2023-02-09T03:21:53.591Z,70.53
2023-02-09T03:24:32.067Z,70.33
2023-02-09T03:27:06.270Z,69.52
2023-02-09T03:29:36.499Z,70.18
2023-02-09T03:32:05.048Z,69.67
2023-02-09T03:34:34.953Z,68.85
2023-02-09T03:37:03.139Z,69.16
2023-02-09T03:39:31.396Z,68.08
2023-02-09T03:41:59.620Z,68.40
2023-02-09T03:44:27.806Z,67.89
2023-02-09T03:46:59.421Z,68.58
2023-02-09T03:49:29.322Z,67.15
2023-02-09T03:52:00.763Z,67.06
2023-02-09T03:54:29.594Z,68.33
2023-02-09T03:56:58.327Z,67.46
2023-02-09T03:59:27.127Z,67.83
2023-02-09T04:01:59.060Z,66.81
2023-02-09T04:04:27.848Z,66.21
2023-02-09T04:06:56.276Z,66.68
2023-02-09T04:09:27.175Z,66.72
2023-02-09T04:11:56.011Z,66.88
2023-02-09T04:14:24.554Z,66.33
2023-02-09T04:16:52.765Z,67.46
2023-02-09T04:19:20.945Z,66.86
2023-02-09T04:21:49.146Z,66.26
2023-02-09T04:24:17.351Z,67.07
2023-02-09T04:26:46.898Z,66.56
2023-02-09T04:29:15.090Z,66.02
2023-02-09T04:31:43.330Z,66.55
2023-02-09T04:34:16.678Z,65.88
2023-02-09T04:36:45.291Z,66.81
2023-02-09T04:39:13.918Z,65.94
2023-02-09T04:41:42.209Z,66.50
2023-02-09T04:44:12.329Z,66.14
2023-02-09T04:46:40.492Z,66.71
2023-02-09T04:49:13.692Z,67.06
2023-02-09T04:51:41.941Z,66.59
2023-02-09T04:54:10.545Z,65.93
2023-02-09T04:56:38.945Z,66.33
2023-02-09T04:59:24.520Z,66.27
2023-02-09T05:01:54.118Z,65.52
2023-02-09T05:04:22.325Z,65.50
2023-02-09T05:06:50.478Z,64.91
2023-02-09T05:09:18.850Z,64.70
2023-02-09T05:11:47.185Z,64.61
2023-02-09T05:14:15.461Z,63.70
2023-02-09T05:16:44.016Z,63.84
2023-02-09T05:19:14.292Z,63.49
2023-02-09T05:21:42.509Z,63.24
2023-02-09T05:24:10.729Z,63.35
2023-02-09T05:26:39.147Z,61.89
2023-02-09T05:29:07.341Z,62.27
2023-02-09T05:31:35.728Z,61.47
2023-02-09T05:34:03.921Z,61.34
2023-02-09T05:36:33.568Z,61.50
2023-02-09T05:39:01.810Z,61.53
2023-02-09T05:41:47.403Z,61.01
2023-02-09T05:44:15.734Z,59.85
2023-02-09T05:46:43.983Z,59.71
2023-02-09T05:49:12.224Z,59.75
2023-02-09T05:51:42.065Z,58.73
2023-02-09T05:54:10.288Z,59.08
2023-02-09T05:56:39.030Z,58.64
2023-02-09T05:59:08.730Z,58.63
2023-02-09T06:01:36.990Z,59.14
2023-02-09T06:04:05.401Z,58.22
2023-02-09T06:06:33.626Z,58.32
2023-02-09T06:09:03.302Z,58.32
2023-02-09T06:11:33.900Z,57.83
2023-02-09T06:14:02.482Z,57.81
2023-02-09T06:16:30.762Z,58.43
2023-02-09T06:18:58.994Z,57.94
2023-02-09T06:21:27.597Z,57.28
2023-02-09T06:23:59.644Z,57.25
2023-02-09T06:26:29.529Z,57.21
2023-02-09T06:28:57.725Z,58.05
2023-02-09T06:31:26.020Z,57.26
2023-02-09T06:33:54.598Z,57.42
2023-02-09T06:36:22.922Z,57.35
2023-02-09T06:38:54.839Z,57.15
2023-02-09T06:41:23.064Z,57.49
2023-02-09T06:43:53.033Z,56.56
2023-02-09T06:46:21.568Z,57.00
2023-02-09T06:48:50.089Z,57.07
2023-02-09T06:51:19.644Z,56.56
2023-02-09T06:53:48.071Z,56.91
2023-02-09T06:56:16.500Z,56.98
2023-02-09T06:58:44.701Z,56.29
2023-02-09T07:01:17.081Z,56.73
2023-02-09T07:03:46.197Z,56.35
2023-02-09T07:06:15.873Z,56.91
2023-02-09T07:08:44.949Z,56.18
2023-02-09T07:11:15.839Z,56.89
2023-02-09T07:13:44.784Z,56.83
2023-02-09T07:16:17.278Z,56.69
2023-02-09T07:18:45.698Z,56.95
2023-02-09T07:21:18.783Z,56.64
2023-02-09T07:23:47.392Z,56.94
2023-02-09T07:26:17.453Z,57.01
2023-02-09T07:28:46.253Z,57.11
2023-02-09T07:31:17.610Z,57.34
2023-02-09T07:33:46.004Z,57.44
2023-02-09T07:36:17.386Z,57.45
2023-02-09T07:38:45.780Z,57.08
2023-02-09T07:41:26.857Z,57.93
2023-02-09T07:43:56.722Z,57.54
2023-02-09T07:46:26.721Z,57.86
2023-02-09T07:48:55.323Z,57.46
2023-02-09T07:51:25.524Z,58.01
2023-02-09T07:53:54.075Z,58.30
2023-02-09T07:56:26.870Z,57.76
2023-02-09T07:58:55.929Z,58.59
2023-02-09T08:01:27.275Z,58.26
2023-02-09T08:03:55.581Z,58.66
2023-02-09T08:06:41.021Z,58.53
2023-02-09T08:09:12.680Z,58.71
2023-02-09T08:11:45.995Z,58.73
2023-02-09T08:14:20.242Z,58.61
2023-02-09T08:16:52.762Z,59.23
2023-02-09T08:19:24.063Z,59.51
2023-02-09T08:21:52.924Z,59.40
2023-02-09T08:24:22.946Z,59.84
2023-02-09T08:26:51.456Z,59.77
2023-02-09T08:29:22.145Z,60.01
2023-02-09T08:31:52.161Z,60.71
2023-02-09T08:34:20.516Z,60.77
2023-02-09T08:36:48.771Z,60.49
2023-02-09T08:39:17.093Z,60.80
2023-02-09T08:41:46.443Z,60.94
2023-02-09T08:44:14.885Z,61.04
2023-02-09T08:46:43.316Z,61.58
2023-02-09T08:49:13.331Z,61.92
2023-02-09T08:51:42.845Z,62.52
2023-02-09T08:54:11.019Z,62.69
2023-02-09T08:56:39.229Z,63.43
2023-02-09T08:59:09.457Z,63.43
2023-02-09T09:01:39.496Z,64.51
2023-02-09T09:04:08.042Z,64.36
2023-02-09T09:06:38.026Z,64.75
2023-02-09T09:09:06.211Z,65.40
2023-02-09T09:11:34.434Z,65.07
2023-02-09T09:14:02.667Z,65.80
2023-02-09T09:16:30.994Z,66.53
2023-02-09T09:18:59.224Z,66.81
2023-02-09T09:21:28.820Z,67.21
2023-02-09T09:23:58.589Z,67.81
2023-02-09T09:26:26.862Z,68.62
2023-02-09T09:28:55.099Z,68.65
2023-02-09T09:31:23.483Z,69.26
2023-02-09T09:33:51.960Z,69.30
2023-02-09T09:36:20.811Z,69.75
2023-02-09T09:38:49.021Z,69.88
2023-02-09T09:41:26.996Z,69.99
2023-02-09T09:43:56.484Z,70.33
2023-02-09T09:46:34.263Z,70.35
2023-02-09T09:49:03.389Z,70.36
2023-02-09T09:51:38.768Z,70.52
2023-02-09T09:54:13.448Z,71.53
2023-02-09T09:56:43.412Z,71.67
2023-02-09T09:59:18.820Z,71.65
2023-02-09T10:01:50.640Z,71.73
2023-02-09T10:04:19.730Z,72.11
2023-02-09T10:06:53.226Z,72.71
2023-02-09T10:09:33.329Z,73.01
2023-02-09T10:12:16.601Z,73.34
2023-02-09T10:14:44.938Z,74.06
2023-02-09T10:17:31.280Z,74.07
2023-02-09T10:20:03.960Z,73.83
2023-02-09T10:22:32.497Z,74.46
2023-02-09T10:25:01.022Z,74.43
2023-02-09T10:27:32.491Z,75.18
2023-02-09T10:30:18.964Z,75.72
2023-02-09T10:32:47.583Z,76.28
2023-02-09T10:35:28.142Z,75.94
2023-02-09T10:38:02.503Z,76.45
2023-02-09T10:40:33.848Z,77.26
2023-02-09T10:43:08.389Z,77.23
2023-02-09T10:45:40.904Z,77.68
2023-02-09T10:48:20.136Z,77.79
2023-02-09T10:50:55.121Z,78.03
2023-02-09T10:53:28.218Z,78.43
2023-02-09T10:56:05.141Z,79.10
2023-02-09T10:58:36.645Z,79.13
2023-02-09T11:01:18.328Z,79.10
2023-02-09T11:04:12.429Z,78.90
2023-02-09T11:06:46.587Z,79.94
2023-02-09T11:09:18.715Z,80.05
2023-02-09T11:11:47.649Z,80.37
2023-02-09T11:14:19.165Z,80.62
2023-02-09T11:17:16.875Z,81.13
2023-02-09T11:20:06.732Z,81.30
2023-02-09T11:22:55.761Z,81.78
2023-02-09T11:25:27.480Z,82.51
2023-02-09T11:28:15.378Z,82.46
2023-02-09T11:31:01.288Z,82.80
2023-02-09T11:33:40.657Z,82.88
2023-02-09T11:36:21.272Z,82.36
2023-02-09T11:38:54.344Z,82.70
2023-02-09T11:41:47.170Z,83.12
2023-02-09T11:44:24.364Z,82.88
2023-02-09T11:47:00.497Z,82.83
2023-02-09T11:49:35.450Z,82.26
2023-02-09T11:52:06.614Z,83.57
2023-02-09T11:54:38.005Z,83.16
2023-02-09T11:57:18.290Z,83.42
2023-02-09T11:59:56.550Z,83.72
2023-02-09T12:02:43.539Z,83.97
2023-02-09T12:05:17.026Z,84.68
2023-02-09T12:07:56.506Z,84.99
2023-02-09T12:10:31.101Z,84.90
2023-02-09T12:13:08.278Z,85.68
2023-02-09T12:15:42.655Z,86.39
2023-02-09T12:18:18.969Z,86.42
2023-02-09T12:20:57.004Z,86.67
2023-02-09T12:23:32.881Z,87.11
2023-02-09T12:26:02.534Z,87.23
2023-02-09T12:28:42.413Z,87.48
2023-02-09T12:31:14.459Z,87.33
2023-02-09T12:34:21.731Z,87.77
2023-02-09T12:37:18.877Z,87.69
2023-02-09T12:40:21.288Z,87.45
2023-02-09T12:43:14.955Z,87.65
2023-02-09T12:45:45.058Z,87.15
2023-02-09T12:48:19.332Z,86.96
2023-02-09T12:50:55.647Z,87.48
2023-02-09T12:53:50.659Z,87.61
2023-02-09T12:56:33.922Z,87.33
2023-02-09T12:59:17.940Z,86.65
2023-02-09T13:02:12.456Z,86.90
2023-02-09T13:04:51.341Z,86.42
2023-02-09T13:07:30.873Z,86.60
2023-02-09T13:10:02.125Z,86.22
2023-02-09T13:12:37.945Z,85.54
2023-02-09T13:15:14.609Z,85.49
2023-02-09T13:17:54.515Z,85.42
2023-02-09T13:21:02.362Z,86.43
2023-02-09T13:23:51.947Z,85.90
2023-02-09T13:26:23.328Z,85.80
2023-02-09T13:29:19.254Z,86.73
2023-02-09T13:31:58.116Z,86.52
2023-02-09T13:34:34.891Z,86.84
2023-02-09T13:37:20.554Z,87.21
2023-02-09T13:39:55.554Z,86.92
2023-02-09T13:42:26.728Z,86.94
2023-02-09T13:44:57.124Z,87.00
2023-02-09T13:47:26.535Z,87.65
2023-02-09T13:50:00.793Z,88.13
2023-02-09T13:52:36.402Z,88.29
2023-02-09T13:55:18.579Z,89.19
2023-02-09T13:57:52.041Z,88.48
2023-02-09T14:00:26.991Z,88.60
2023-02-09T14:02:59.016Z,88.48
2023-02-09T14:05:36.870Z,88.51
2023-02-09T14:08:09.164Z,88.39
2023-02-09T14:10:41.796Z,89.38
2023-02-09T14:13:21.666Z,88.42
2023-02-09T14:16:08.295Z,88.42
2023-02-09T14:18:51.781Z,89.34
2023-02-09T14:21:29.990Z,88.86
2023-02-09T14:24:18.417Z,89.39
2023-02-09T14:26:54.348Z,89.18
2023-02-09T14:29:27.742Z,89.46
2023-02-09T14:31:58.073Z,89.79
2023-02-09T14:34:33.560Z,90.48
2023-02-09T14:37:04.297Z,90.64
2023-02-09T14:39:32.994Z,91.46
2023-02-09T14:42:18.055Z,91.40
2023-02-09T14:44:47.929Z,91.45
2023-02-09T14:47:31.097Z,91.03
2023-02-09T14:50:00.962Z,91.80
2023-02-09T14:52:32.716Z,91.73
2023-02-09T14:55:04.677Z,92.26
2023-02-09T14:57:39.824Z,92.51
2023-02-09T15:00:16.960Z,92.94
2023-02-09T15:02:46.296Z,93.20
2023-02-09T15:05:14.854Z,93.34
2023-02-09T15:07:47.154Z,93.68
2023-02-09T15:10:30.880Z,94.34
2023-02-09T15:13:02.136Z,94.59
2023-02-09T15:15:31.546Z,95.41
2023-02-09T15:18:01.007Z,96.08
2023-02-09T15:20:31.472Z,96.35
2023-02-09T15:23:00.898Z,96.57
2023-02-09T15:25:29.579Z,96.60
2023-02-09T15:28:01.432Z,97.09
2023-02-09T15:30:34.328Z,97.53
2023-02-09T15:33:06.364Z,97.77
2023-02-09T15:35:34.869Z,98.06
2023-02-09T15:38:03.714Z,98.45
2023-02-09T15:40:53.952Z,98.82
2023-02-09T15:43:42.607Z,99.08
2023-02-09T15:46:29.312Z,98.85
2023-02-09T15:48:57.757Z,98.65
2023-02-09T15:51:34.337Z,100.00
2023-02-09T15:54:06.611Z,100.00
2023-02-09T15:56:37.279Z,100.00
2023-02-09T15:59:06.961Z,100.00
2023-02-09T16:01:35.338Z,100.00
2023-02-09T16:04:13.949Z,100.00
2023-02-09T16:06:46.898Z,100.00
2023-02-09T16:09:21.302Z,100.00
2023-02-09T16:11:49.588Z,100.00
2023-02-09T16:14:21.561Z,100.00
2023-02-09T16:16:50.423Z,100.00
2023-02-09T16:19:19.326Z,100.00
2023-02-09T16:21:51.664Z,100.00
2023-02-09T16:24:30.644Z,100.00
2023-02-09T16:26:59.875Z,100.00
2023-02-09T16:29:29.968Z,100.00
2023-02-09T16:31:58.282Z,100.00
2023-02-09T16:34:26.604Z,100.00
2023-02-09T16:36:55.127Z,100.00
2023-02-09T16:39:24.034Z,100.00
2023-02-09T16:41:52.926Z,100.00
2023-02-09T16:44:23.433Z,100.00
2023-02-09T16:46:55.760Z,100.00
2023-02-09T16:49:44.536Z,100.00
2023-02-09T16:52:18.708Z,100.00
2023-02-09T16:54:49.544Z,100.00
2023-02-09T16:57:20.790Z,100.00
2023-02-09T16:59:49.013Z,100.00
2023-02-09T17:02:33.689Z,100.00
2023-02-09T17:05:03.853Z,100.00
2023-02-09T17:07:48.736Z,100.00
2023-02-09T17:10:25.487Z,100.00
2023-02-09T17:12:54.099Z,100.00
2023-02-09T17:15:30.736Z,100.00
2023-02-09T17:18:06.054Z,100.00
2023-02-09T17:20:39.603Z,100.00
2023-02-09T17:23:08.128Z,100.00
2023-02-09T17:25:36.516Z,100.00
2023-02-09T17:28:05.781Z,100.00
2023-02-09T17:30:35.928Z,100.00
2023-02-09T17:33:09.345Z,100.00
2023-02-09T17:38:29.886Z,100.00
2023-02-09T17:41:00.474Z,100.00
2023-02-09T17:43:29.167Z,100.00
2023-02-09T17:45:57.889Z,100.00
2023-02-09T17:48:27.717Z,100.00
2023-02-09T17:50:59.194Z,100.00
2023-02-09T17:53:29.696Z,100.00
2023-02-09T17:55:57.987Z,100.00
2023-02-09T17:58:26.370Z,100.00
2023-02-09T18:00:56.054Z,100.00
2023-02-09T18:03:26.936Z,100.00
2023-02-09T18:06:01.826Z,100.00
2023-02-09T18:08:31.786Z,100.00
2023-02-09T18:11:00.114Z,100.00
2023-02-09T18:13:28.762Z,100.00
2023-02-09T18:15:57.057Z,100.00
2023-02-09T18:18:25.669Z,100.00
2023-02-09T18:20:54.033Z,100.00
2023-02-09T18:23:23.932Z,100.00
2023-02-09T18:25:52.299Z,100.00
2023-02-09T18:28:20.695Z,100.00
2023-02-09T18:30:49.130Z,100.00
2023-02-09T18:33:17.765Z,100.00
2023-02-09T18:35:46.626Z,100.00
2023-02-09T18:38:16.547Z,100.00
2023-02-09T18:40:46.296Z,99.86
2023-02-09T18:43:15.954Z,98.59
2023-02-09T18:45:45.032Z,99.11
2023-02-09T18:48:13.573Z,98.15
2023-02-09T18:50:41.841Z,97.71
2023-02-09T18:53:13.175Z,96.74
2023-02-09T18:55:41.408Z,96.28
2023-02-09T18:58:11.116Z,95.93
2023-02-09T19:00:41.697Z,95.65
2023-02-09T19:03:09.921Z,95.77
2023-02-09T19:05:38.156Z,95.58
2023-02-09T19:08:08.701Z,97.01
2023-02-09T19:10:37.197Z,96.66
2023-02-09T19:13:05.998Z,96.69
2023-02-09T19:15:39.112Z,97.19
2023-02-09T19:18:07.899Z,97.25
2023-02-09T19:20:36.270Z,97.42
2023-02-09T19:23:06.830Z,97.40
2023-02-09T19:25:35.158Z,96.91
2023-02-09T19:28:03.368Z,96.55
2023-02-09T19:30:31.786Z,96.72
2023-02-09T19:33:02.312Z,96.74
2023-02-09T19:35:30.585Z,96.07
2023-02-09T19:37:59.245Z,96.18
2023-02-09T19:40:36.469Z,96.34
2023-02-09T19:43:06.107Z,96.25
2023-02-09T19:45:37.830Z,95.67
2023-02-09T19:48:09.291Z,95.17
2023-02-09T19:50:41.067Z,94.81
2023-02-09T19:53:11.063Z,94.29
2023-02-09T19:55:39.435Z,94.45
2023-02-09T19:58:07.812Z,93.69
2023-02-09T20:00:36.077Z,93.58
2023-02-09T20:03:04.634Z,93.01
2023-02-09T20:05:34.427Z,93.26
2023-02-09T20:08:02.669Z,93.92
2023-02-09T20:10:31.912Z,95.58
2023-02-09T20:13:00.224Z,95.58
2023-02-09T20:15:28.471Z,95.01
2023-02-09T20:17:57.260Z,95.56
2023-02-09T20:20:25.846Z,94.67
2023-02-09T20:22:55.649Z,95.04
2023-02-09T20:25:24.145Z,94.74
2023-02-09T20:27:52.568Z,95.75
2023-02-09T20:30:20.994Z,95.59
2023-02-09T20:32:49.326Z,96.16
2023-02-09T20:35:17.920Z,97.28
2023-02-09T20:37:46.338Z,97.03
2023-02-09T20:40:16.250Z,97.34
2023-02-09T20:43:02.205Z,97.54
2023-02-09T20:45:48.166Z,97.09
2023-02-09T20:48:17.526Z,97.40
2023-02-09T20:50:46.920Z,96.65
2023-02-09T20:53:17.229Z,97.31
2023-02-09T20:55:46.873Z,96.45
2023-02-09T20:58:15.104Z,96.56
2023-02-09T21:00:44.084Z,96.95
2023-02-09T21:03:12.493Z,95.82
2023-02-09T21:05:42.348Z,96.41
2023-02-09T21:08:10.527Z,95.27
2023-02-09T21:10:38.802Z,93.22
2023-02-09T21:13:09.648Z,93.55
2023-02-09T21:15:42.062Z,93.13
2023-02-09T21:18:10.324Z,93.43
2023-02-09T21:20:39.515Z,93.92
2023-02-09T21:23:07.698Z,95.36
2023-02-09T21:25:36.855Z,96.36
2023-02-09T21:28:05.514Z,97.99
2023-02-09T21:30:35.378Z,99.39
2023-02-09T21:33:06.250Z,97.95
2023-02-09T21:35:34.433Z,97.80
2023-02-09T21:38:02.964Z,97.67
2023-02-09T21:40:31.149Z,98.56
2023-02-09T21:42:59.404Z,99.36
2023-02-09T21:45:27.696Z,99.60
2023-02-09T21:47:57.346Z,99.94
2023-02-09T21:50:26.299Z,99.72
2023-02-09T21:52:56.321Z,100.00
2023-02-09T21:55:24.582Z,99.69
2023-02-09T21:57:53.996Z,99.84
2023-02-09T22:00:22.419Z,99.91
2023-02-09T22:02:54.028Z,98.62
2023-02-09T22:05:24.150Z,97.39
2023-02-09T22:07:53.307Z,94.84
2023-02-09T22:10:21.582Z,91.88
2023-02-09T22:12:50.003Z,91.10
2023-02-09T22:15:19.255Z,86.38
2023-02-09T22:17:48.483Z,85.08
2023-02-09T22:20:16.987Z,82.39
2023-02-09T22:22:46.589Z,80.77
2023-02-09T22:25:14.799Z,77.51
2023-02-09T22:27:43.037Z,77.47
2023-02-09T22:30:12.514Z,76.61
2023-02-09T22:32:40.725Z,74.24
2023-02-09T22:35:09.362Z,75.33
2023-02-09T22:37:37.613Z,74.44
2023-02-09T22:40:08.071Z,74.53
2023-02-09T22:42:36.762Z,74.60
2023-02-09T22:45:05.546Z,73.62
2023-02-09T22:47:35.004Z,72.21
2023-02-09T22:50:03.278Z,72.68
2023-02-09T22:52:31.915Z,72.77
2023-02-09T22:55:00.309Z,73.23
2023-02-09T22:57:30.179Z,73.99
2023-02-09T22:59:58.399Z,73.70
2023-02-09T23:02:26.628Z,72.31
2023-02-09T23:04:54.850Z,71.71
2023-02-09T23:07:23.040Z,70.54
2023-02-09T23:09:51.447Z,70.17
2023-02-09T23:12:19.797Z,68.85
2023-02-09T23:14:49.450Z,69.08
2023-02-09T23:17:17.650Z,69.44
2023-02-09T23:19:45.854Z,70.66
2023-02-09T23:22:14.021Z,71.69
2023-02-09T23:24:42.358Z,71.02
2023-02-09T23:27:10.648Z,70.44
2023-02-09T23:29:44.951Z,70.83
2023-02-09T23:32:14.607Z,71.15
2023-02-09T23:34:42.771Z,71.43
2023-02-09T23:37:18.723Z,71.04
2023-02-09T23:39:56.904Z,70.34
2023-02-09T23:42:25.164Z,70.70
2023-02-09T23:44:53.581Z,70.51
2023-02-09T23:47:23.290Z,70.51
2023-02-09T23:49:52.373Z,70.18
2023-02-09T23:52:20.715Z,69.46
2023-02-09T23:54:49.261Z,69.01
2023-02-09T23:57:18.173Z,69.15
2023-02-09T23:59:46.528Z,68.50
